sensor_id;sensor_type;location;lat;lon;timestamp;P1;durP1;ratioP1;P2;durP2;ratioP2
179;SDS011;78;48.788;9.010;2023-05-07T00:00:55;18.90;;;5.40;;
179;SDS011;78;48.788;9.010;2023-05-07T00:03:22;23.57;;;5.47;;
179;SDS011;78;48.788;9.010;2023-05-07T00:05:49;20.10;;;5.90;;
179;SDS011;78;48.788;9.010;2023-05-07T00:08:15;18.83;;;5.50;;
179;SDS011;78;48.788;9.010;2023-05-07T00:10:41;22.53;;;5.17;;
179;SDS011;78;48.788;9.010;2023-05-07T00:13:08;19.33;;;5.10;;
179;SDS011;78;48.788;9.010;2023-05-07T00:15:34;20.83;;;5.73;;
179;SDS011;78;48.788;9.010;2023-05-07T00:18:01;23.80;;;6.17;;
179;SDS011;78;48.788;9.010;2023-05-07T00:20:27;21.37;;;5.73;;
179;SDS011;78;48.788;9.010;2023-05-07T00:22:53;18.83;;;5.30;;
179;SDS011;78;48.788;9.010;2023-05-07T00:25:20;23.20;;;5.40;;
179;SDS011;78;48.788;9.010;2023-05-07T00:27:46;22.03;;;5.57;;
179;SDS011;78;48.788;9.010;2023-05-07T00:30:12;22.37;;;5.90;;
179;SDS011;78;48.788;9.010;2023-05-07T00:32:39;20.73;;;5.27;;
179;SDS011;78;48.788;9.010;2023-05-07T00:35:20;20.40;;;6.00;;
179;SDS011;78;48.788;9.010;2023-05-07T00:37:47;25.93;;;6.17;;
179;SDS011;78;48.788;9.010;2023-05-07T00:40:14;25.80;;;6.20;;
179;SDS011;78;48.788;9.010;2023-05-07T00:42:40;21.00;;;6.00;;
179;SDS011;78;48.788;9.010;2023-05-07T00:45:06;20.87;;;5.90;;
179;SDS011;78;48.788;9.010;2023-05-07T00:47:33;21.00;;;6.03;;
179;SDS011;78;48.788;9.010;2023-05-07T00:49:59;20.37;;;6.03;;
179;SDS011;78;48.788;9.010;2023-05-07T00:52:25;22.30;;;6.07;;
179;SDS011;78;48.788;9.010;2023-05-07T00:54:52;21.50;;;5.90;;
179;SDS011;78;48.788;9.010;2023-05-07T00:57:18;23.80;;;5.40;;
179;SDS011;78;48.788;9.010;2023-05-07T00:59:45;20.23;;;6.03;;
179;SDS011;78;48.788;9.010;2023-05-07T01:02:11;20.53;;;5.93;;
179;SDS011;78;48.788;9.010;2023-05-07T01:04:38;20.03;;;6.30;;
179;SDS011;78;48.788;9.010;2023-05-07T01:07:04;21.33;;;5.80;;
179;SDS011;78;48.788;9.010;2023-05-07T01:09:31;22.83;;;5.50;;
179;SDS011;78;48.788;9.010;2023-05-07T01:11:57;22.43;;;5.63;;
179;SDS011;78;48.788;9.010;2023-05-07T01:14:24;20.60;;;5.90;;
179;SDS011;78;48.788;9.010;2023-05-07T01:16:51;21.00;;;5.33;;
179;SDS011;78;48.788;9.010;2023-05-07T01:19:18;20.63;;;6.23;;
179;SDS011;78;48.788;9.010;2023-05-07T01:21:47;21.23;;;5.60;;
179;SDS011;78;48.788;9.010;2023-05-07T01:24:14;19.10;;;5.57;;
179;SDS011;78;48.788;9.010;2023-05-07T01:26:42;19.23;;;5.73;;
179;SDS011;78;48.788;9.010;2023-05-07T01:29:09;20.97;;;5.80;;
179;SDS011;78;48.788;9.010;2023-05-07T01:31:35;22.30;;;5.73;;
179;SDS011;78;48.788;9.010;2023-05-07T01:34:02;19.00;;;5.40;;
179;SDS011;78;48.788;9.010;2023-05-07T01:36:29;22.30;;;6.20;;
179;SDS011;78;48.788;9.010;2023-05-07T01:38:56;20.10;;;5.20;;
179;SDS011;78;48.788;9.010;2023-05-07T01:41:24;22.10;;;5.77;;
179;SDS011;78;48.788;9.010;2023-05-07T01:43:50;20.50;;;6.10;;
179;SDS011;78;48.788;9.010;2023-05-07T01:46:18;22.50;;;6.03;;
179;SDS011;78;48.788;9.010;2023-05-07T01:48:45;21.33;;;5.70;;
179;SDS011;78;48.788;9.010;2023-05-07T01:51:11;20.37;;;5.70;;
179;SDS011;78;48.788;9.010;2023-05-07T01:53:38;18.23;;;5.20;;
179;SDS011;78;48.788;9.010;2023-05-07T01:56:06;19.90;;;5.40;;
179;SDS011;78;48.788;9.010;2023-05-07T01:58:32;19.30;;;5.43;;
179;SDS011;78;48.788;9.010;2023-05-07T02:00:58;18.43;;;5.30;;
179;SDS011;78;48.788;9.010;2023-05-07T02:03:25;18.70;;;5.30;;
179;SDS011;78;48.788;9.010;2023-05-07T02:05:52;21.10;;;5.60;;
179;SDS011;78;48.788;9.010;2023-05-07T02:08:18;20.13;;;6.03;;
179;SDS011;78;48.788;9.010;2023-05-07T02:10:45;19.90;;;5.80;;
179;SDS011;78;48.788;9.010;2023-05-07T02:13:11;20.67;;;5.80;;
179;SDS011;78;48.788;9.010;2023-05-07T02:15:37;18.97;;;5.70;;
179;SDS011;78;48.788;9.010;2023-05-07T02:18:05;19.93;;;5.30;;
179;SDS011;78;48.788;9.010;2023-05-07T02:20:31;19.33;;;5.70;;
179;SDS011;78;48.788;9.010;2023-05-07T02:22:58;19.17;;;5.63;;
179;SDS011;78;48.788;9.010;2023-05-07T02:25:24;19.47;;;5.83;;
179;SDS011;78;48.788;9.010;2023-05-07T02:27:50;21.40;;;6.20;;
179;SDS011;78;48.788;9.010;2023-05-07T02:30:17;19.60;;;5.80;;
179;SDS011;78;48.788;9.010;2023-05-07T02:32:43;21.20;;;5.43;;
179;SDS011;78;48.788;9.010;2023-05-07T02:35:10;24.90;;;6.13;;
179;SDS011;78;48.788;9.010;2023-05-07T02:37:36;20.30;;;6.03;;
179;SDS011;78;48.788;9.010;2023-05-07T02:40:03;19.40;;;5.73;;
179;SDS011;78;48.788;9.010;2023-05-07T02:42:29;20.20;;;6.17;;
179;SDS011;78;48.788;9.010;2023-05-07T02:44:55;20.60;;;6.33;;
179;SDS011;78;48.788;9.010;2023-05-07T02:47:21;19.80;;;6.00;;
179;SDS011;78;48.788;9.010;2023-05-07T02:49:48;19.23;;;6.10;;
179;SDS011;78;48.788;9.010;2023-05-07T02:52:14;18.20;;;5.50;;
179;SDS011;78;48.788;9.010;2023-05-07T02:54:41;19.13;;;5.70;;
179;SDS011;78;48.788;9.010;2023-05-07T02:57:07;20.10;;;6.30;;
179;SDS011;78;48.788;9.010;2023-05-07T02:59:33;19.13;;;5.90;;
179;SDS011;78;48.788;9.010;2023-05-07T03:01:59;19.23;;;5.73;;
179;SDS011;78;48.788;9.010;2023-05-07T03:04:26;18.97;;;5.63;;
179;SDS011;78;48.788;9.010;2023-05-07T03:06:53;22.23;;;6.40;;
179;SDS011;78;48.788;9.010;2023-05-07T03:09:19;21.17;;;5.80;;
179;SDS011;78;48.788;9.010;2023-05-07T03:11:46;22.20;;;6.27;;
179;SDS011;78;48.788;9.010;2023-05-07T03:14:12;19.60;;;5.70;;
179;SDS011;78;48.788;9.010;2023-05-07T03:16:39;20.40;;;5.63;;
179;SDS011;78;48.788;9.010;2023-05-07T03:19:05;20.27;;;6.00;;
179;SDS011;78;48.788;9.010;2023-05-07T03:21:31;20.00;;;6.00;;
179;SDS011;78;48.788;9.010;2023-05-07T03:23:59;21.33;;;6.20;;
179;SDS011;78;48.788;9.010;2023-05-07T03:26:25;21.27;;;6.37;;
179;SDS011;78;48.788;9.010;2023-05-07T03:28:51;21.90;;;6.10;;
179;SDS011;78;48.788;9.010;2023-05-07T03:31:17;19.83;;;6.20;;
179;SDS011;78;48.788;9.010;2023-05-07T03:33:53;18.67;;;5.90;;
179;SDS011;78;48.788;9.010;2023-05-07T03:36:20;20.50;;;6.57;;
179;SDS011;78;48.788;9.010;2023-05-07T03:38:47;21.93;;;6.83;;
179;SDS011;78;48.788;9.010;2023-05-07T03:41:13;19.90;;;6.40;;
179;SDS011;78;48.788;9.010;2023-05-07T03:43:40;20.83;;;5.93;;
179;SDS011;78;48.788;9.010;2023-05-07T03:46:06;19.47;;;5.80;;
179;SDS011;78;48.788;9.010;2023-05-07T03:48:33;20.57;;;6.00;;
179;SDS011;78;48.788;9.010;2023-05-07T03:50:59;20.80;;;6.30;;
179;SDS011;78;48.788;9.010;2023-05-07T03:53:25;20.83;;;5.83;;
179;SDS011;78;48.788;9.010;2023-05-07T03:55:52;22.37;;;6.40;;
179;SDS011;78;48.788;9.010;2023-05-07T03:58:18;21.10;;;6.63;;
179;SDS011;78;48.788;9.010;2023-05-07T04:00:45;24.60;;;6.10;;
179;SDS011;78;48.788;9.010;2023-05-07T04:03:11;19.93;;;6.20;;
179;SDS011;78;48.788;9.010;2023-05-07T04:05:37;23.23;;;7.00;;
179;SDS011;78;48.788;9.010;2023-05-07T04:08:04;19.47;;;6.27;;
179;SDS011;78;48.788;9.010;2023-05-07T04:10:30;25.63;;;6.67;;
179;SDS011;78;48.788;9.010;2023-05-07T04:12:56;22.40;;;6.67;;
179;SDS011;78;48.788;9.010;2023-05-07T04:15:23;21.03;;;6.07;;
179;SDS011;78;48.788;9.010;2023-05-07T04:17:49;23.33;;;6.00;;
179;SDS011;78;48.788;9.010;2023-05-07T04:20:16;20.30;;;6.07;;
179;SDS011;78;48.788;9.010;2023-05-07T04:22:43;21.00;;;6.30;;
179;SDS011;78;48.788;9.010;2023-05-07T04:25:09;21.60;;;6.63;;
179;SDS011;78;48.788;9.010;2023-05-07T04:27:35;22.83;;;6.73;;
179;SDS011;78;48.788;9.010;2023-05-07T04:30:02;22.57;;;6.70;;
179;SDS011;78;48.788;9.010;2023-05-07T04:32:29;20.87;;;6.20;;
179;SDS011;78;48.788;9.010;2023-05-07T04:34:56;23.57;;;6.20;;
179;SDS011;78;48.788;9.010;2023-05-07T04:37:22;21.17;;;6.77;;
179;SDS011;78;48.788;9.010;2023-05-07T04:39:49;21.50;;;6.70;;
179;SDS011;78;48.788;9.010;2023-05-07T04:42:15;20.60;;;6.43;;
179;SDS011;78;48.788;9.010;2023-05-07T04:44:43;22.37;;;6.60;;
179;SDS011;78;48.788;9.010;2023-05-07T04:47:10;20.63;;;6.20;;
179;SDS011;78;48.788;9.010;2023-05-07T04:49:37;20.57;;;6.60;;
179;SDS011;78;48.788;9.010;2023-05-07T04:52:03;20.07;;;6.70;;
179;SDS011;78;48.788;9.010;2023-05-07T04:54:30;21.43;;;6.50;;
179;SDS011;78;48.788;9.010;2023-05-07T04:56:56;21.80;;;6.30;;
179;SDS011;78;48.788;9.010;2023-05-07T04:59:22;19.47;;;6.17;;
179;SDS011;78;48.788;9.010;2023-05-07T05:01:48;19.90;;;6.40;;
179;SDS011;78;48.788;9.010;2023-05-07T05:04:14;19.17;;;6.37;;
179;SDS011;78;48.788;9.010;2023-05-07T05:06:41;24.17;;;6.73;;
179;SDS011;78;48.788;9.010;2023-05-07T05:09:07;22.37;;;6.63;;
179;SDS011;78;48.788;9.010;2023-05-07T05:11:33;21.23;;;6.40;;
179;SDS011;78;48.788;9.010;2023-05-07T05:14:00;19.67;;;6.40;;
179;SDS011;78;48.788;9.010;2023-05-07T05:16:27;22.00;;;6.87;;
179;SDS011;78;48.788;9.010;2023-05-07T05:18:53;20.70;;;7.00;;
179;SDS011;78;48.788;9.010;2023-05-07T05:21:20;25.40;;;7.33;;
179;SDS011;78;48.788;9.010;2023-05-07T05:23:46;21.43;;;6.97;;
179;SDS011;78;48.788;9.010;2023-05-07T05:26:12;22.00;;;7.10;;
179;SDS011;78;48.788;9.010;2023-05-07T05:28:39;25.87;;;6.60;;
179;SDS011;78;48.788;9.010;2023-05-07T05:31:05;22.37;;;7.00;;
179;SDS011;78;48.788;9.010;2023-05-07T05:33:31;19.00;;;6.10;;
179;SDS011;78;48.788;9.010;2023-05-07T05:35:58;19.93;;;6.60;;
179;SDS011;78;48.788;9.010;2023-05-07T05:38:24;20.63;;;6.20;;
179;SDS011;78;48.788;9.010;2023-05-07T05:40:50;18.90;;;5.90;;
179;SDS011;78;48.788;9.010;2023-05-07T05:43:17;19.73;;;6.30;;
179;SDS011;78;48.788;9.010;2023-05-07T05:45:43;20.67;;;6.40;;
179;SDS011;78;48.788;9.010;2023-05-07T05:48:09;19.90;;;6.60;;
179;SDS011;78;48.788;9.010;2023-05-07T05:50:35;24.50;;;6.33;;
179;SDS011;78;48.788;9.010;2023-05-07T05:53:01;20.00;;;6.10;;
179;SDS011;78;48.788;9.010;2023-05-07T05:55:27;22.30;;;6.53;;
179;SDS011;78;48.788;9.010;2023-05-07T05:57:53;20.50;;;6.37;;
179;SDS011;78;48.788;9.010;2023-05-07T06:00:20;21.17;;;6.60;;
179;SDS011;78;48.788;9.010;2023-05-07T06:02:47;19.60;;;6.33;;
179;SDS011;78;48.788;9.010;2023-05-07T06:05:13;19.67;;;6.30;;
179;SDS011;78;48.788;9.010;2023-05-07T06:07:40;20.40;;;6.90;;
179;SDS011;78;48.788;9.010;2023-05-07T06:10:06;19.07;;;5.87;;
179;SDS011;78;48.788;9.010;2023-05-07T06:12:32;20.07;;;6.60;;
179;SDS011;78;48.788;9.010;2023-05-07T06:14:58;24.60;;;6.90;;
179;SDS011;78;48.788;9.010;2023-05-07T06:17:25;20.40;;;6.70;;
179;SDS011;78;48.788;9.010;2023-05-07T06:19:51;20.10;;;6.93;;
179;SDS011;78;48.788;9.010;2023-05-07T06:22:18;21.10;;;7.00;;
179;SDS011;78;48.788;9.010;2023-05-07T06:24:44;23.43;;;7.03;;
179;SDS011;78;48.788;9.010;2023-05-07T06:27:11;20.73;;;7.50;;
179;SDS011;78;48.788;9.010;2023-05-07T06:29:37;23.60;;;7.40;;
179;SDS011;78;48.788;9.010;2023-05-07T06:32:06;22.73;;;7.70;;
179;SDS011;78;48.788;9.010;2023-05-07T06:34:33;25.73;;;8.40;;
179;SDS011;78;48.788;9.010;2023-05-07T06:37:00;25.50;;;8.50;;
179;SDS011;78;48.788;9.010;2023-05-07T06:39:26;22.00;;;7.77;;
179;SDS011;78;48.788;9.010;2023-05-07T06:41:52;22.40;;;8.13;;
179;SDS011;78;48.788;9.010;2023-05-07T06:44:18;23.70;;;7.90;;
179;SDS011;78;48.788;9.010;2023-05-07T06:46:44;21.30;;;7.57;;
179;SDS011;78;48.788;9.010;2023-05-07T06:49:11;21.90;;;7.87;;
179;SDS011;78;48.788;9.010;2023-05-07T06:51:37;23.37;;;7.30;;
179;SDS011;78;48.788;9.010;2023-05-07T06:54:03;23.20;;;7.03;;
179;SDS011;78;48.788;9.010;2023-05-07T06:56:30;24.90;;;7.17;;
179;SDS011;78;48.788;9.010;2023-05-07T06:58:56;22.40;;;7.27;;
179;SDS011;78;48.788;9.010;2023-05-07T07:01:22;22.60;;;7.13;;
179;SDS011;78;48.788;9.010;2023-05-07T07:03:48;19.47;;;6.13;;
179;SDS011;78;48.788;9.010;2023-05-07T07:06:14;19.10;;;6.03;;
179;SDS011;78;48.788;9.010;2023-05-07T07:08:40;20.97;;;6.70;;
179;SDS011;78;48.788;9.010;2023-05-07T07:11:06;19.43;;;5.90;;
179;SDS011;78;48.788;9.010;2023-05-07T07:13:32;20.57;;;5.53;;
179;SDS011;78;48.788;9.010;2023-05-07T07:15:58;18.40;;;4.80;;
179;SDS011;78;48.788;9.010;2023-05-07T07:18:24;21.00;;;5.20;;
179;SDS011;78;48.788;9.010;2023-05-07T07:20:50;18.70;;;5.07;;
179;SDS011;78;48.788;9.010;2023-05-07T07:23:16;21.03;;;5.20;;
179;SDS011;78;48.788;9.010;2023-05-07T07:25:42;19.20;;;4.90;;
179;SDS011;78;48.788;9.010;2023-05-07T07:28:08;19.47;;;5.40;;
179;SDS011;78;48.788;9.010;2023-05-07T07:30:35;18.70;;;5.17;;
179;SDS011;78;48.788;9.010;2023-05-07T07:33:01;20.67;;;5.13;;
179;SDS011;78;48.788;9.010;2023-05-07T07:35:31;18.70;;;5.07;;
179;SDS011;78;48.788;9.010;2023-05-07T07:37:57;17.60;;;5.07;;
179;SDS011;78;48.788;9.010;2023-05-07T07:40:24;17.30;;;4.40;;
179;SDS011;78;48.788;9.010;2023-05-07T07:42:50;20.00;;;5.43;;
179;SDS011;78;48.788;9.010;2023-05-07T07:45:16;19.63;;;5.10;;
179;SDS011;78;48.788;9.010;2023-05-07T07:47:42;19.10;;;4.70;;
179;SDS011;78;48.788;9.010;2023-05-07T07:50:08;20.80;;;4.90;;
179;SDS011;78;48.788;9.010;2023-05-07T07:52:35;17.17;;;4.80;;
179;SDS011;78;48.788;9.010;2023-05-07T07:55:01;18.60;;;4.70;;
179;SDS011;78;48.788;9.010;2023-05-07T07:57:27;19.17;;;4.83;;
179;SDS011;78;48.788;9.010;2023-05-07T07:59:54;16.40;;;4.33;;
179;SDS011;78;48.788;9.010;2023-05-07T08:02:20;16.20;;;4.47;;
179;SDS011;78;48.788;9.010;2023-05-07T08:04:46;18.13;;;4.60;;
179;SDS011;78;48.788;9.010;2023-05-07T08:07:13;17.97;;;4.57;;
179;SDS011;78;48.788;9.010;2023-05-07T08:09:39;16.77;;;4.40;;
179;SDS011;78;48.788;9.010;2023-05-07T08:12:06;16.57;;;4.67;;
179;SDS011;78;48.788;9.010;2023-05-07T08:14:32;19.50;;;4.37;;
179;SDS011;78;48.788;9.010;2023-05-07T08:16:59;18.07;;;4.33;;
179;SDS011;78;48.788;9.010;2023-05-07T08:19:25;18.27;;;4.67;;
179;SDS011;78;48.788;9.010;2023-05-07T08:21:51;17.73;;;4.50;;
179;SDS011;78;48.788;9.010;2023-05-07T08:24:18;18.47;;;4.30;;
179;SDS011;78;48.788;9.010;2023-05-07T08:26:44;18.77;;;4.50;;
179;SDS011;78;48.788;9.010;2023-05-07T08:29:10;20.13;;;4.30;;
179;SDS011;78;48.788;9.010;2023-05-07T08:31:36;17.07;;;4.20;;
179;SDS011;78;48.788;9.010;2023-05-07T08:34:04;16.50;;;4.20;;
179;SDS011;78;48.788;9.010;2023-05-07T08:36:31;17.20;;;4.70;;
179;SDS011;78;48.788;9.010;2023-05-07T08:38:57;17.63;;;4.50;;
179;SDS011;78;48.788;9.010;2023-05-07T08:41:23;17.77;;;4.40;;
179;SDS011;78;48.788;9.010;2023-05-07T08:43:50;19.47;;;4.70;;
179;SDS011;78;48.788;9.010;2023-05-07T08:46:16;18.67;;;4.23;;
179;SDS011;78;48.788;9.010;2023-05-07T08:48:43;19.07;;;4.40;;
179;SDS011;78;48.788;9.010;2023-05-07T08:51:12;17.57;;;4.30;;
179;SDS011;78;48.788;9.010;2023-05-07T08:53:38;16.27;;;4.30;;
179;SDS011;78;48.788;9.010;2023-05-07T08:56:06;17.27;;;4.10;;
179;SDS011;78;48.788;9.010;2023-05-07T08:58:32;17.30;;;4.20;;
179;SDS011;78;48.788;9.010;2023-05-07T09:00:58;15.77;;;3.80;;
179;SDS011;78;48.788;9.010;2023-05-07T09:03:25;18.90;;;4.40;;
179;SDS011;78;48.788;9.010;2023-05-07T09:05:51;18.43;;;4.50;;
179;SDS011;78;48.788;9.010;2023-05-07T09:08:17;17.30;;;3.93;;
179;SDS011;78;48.788;9.010;2023-05-07T09:10:43;18.67;;;4.87;;
179;SDS011;78;48.788;9.010;2023-05-07T09:13:09;17.00;;;3.87;;
179;SDS011;78;48.788;9.010;2023-05-07T09:15:39;19.40;;;4.47;;
179;SDS011;78;48.788;9.010;2023-05-07T09:18:06;19.70;;;4.00;;
179;SDS011;78;48.788;9.010;2023-05-07T09:20:32;16.30;;;3.90;;
179;SDS011;78;48.788;9.010;2023-05-07T09:22:58;15.57;;;3.80;;
179;SDS011;78;48.788;9.010;2023-05-07T09:25:28;18.07;;;4.30;;
179;SDS011;78;48.788;9.010;2023-05-07T09:27:54;18.13;;;3.80;;
179;SDS011;78;48.788;9.010;2023-05-07T09:30:20;20.13;;;3.63;;
179;SDS011;78;48.788;9.010;2023-05-07T09:32:46;16.37;;;3.80;;
179;SDS011;78;48.788;9.010;2023-05-07T09:35:16;17.50;;;4.00;;
179;SDS011;78;48.788;9.010;2023-05-07T09:37:42;16.63;;;4.07;;
179;SDS011;78;48.788;9.010;2023-05-07T09:40:08;16.97;;;4.30;;
179;SDS011;78;48.788;9.010;2023-05-07T09:42:45;17.53;;;3.90;;
179;SDS011;78;48.788;9.010;2023-05-07T09:45:12;15.80;;;3.70;;
179;SDS011;78;48.788;9.010;2023-05-07T09:47:38;15.43;;;3.67;;
179;SDS011;78;48.788;9.010;2023-05-07T09:50:05;16.63;;;3.83;;
179;SDS011;78;48.788;9.010;2023-05-07T09:52:34;23.83;;;3.90;;
179;SDS011;78;48.788;9.010;2023-05-07T09:55:00;15.30;;;3.50;;
179;SDS011;78;48.788;9.010;2023-05-07T09:57:27;16.93;;;4.00;;
179;SDS011;78;48.788;9.010;2023-05-07T09:59:56;16.10;;;4.07;;
179;SDS011;78;48.788;9.010;2023-05-07T10:02:22;16.10;;;3.40;;
179;SDS011;78;48.788;9.010;2023-05-07T10:04:49;16.87;;;3.80;;
179;SDS011;78;48.788;9.010;2023-05-07T10:07:16;15.87;;;3.87;;
179;SDS011;78;48.788;9.010;2023-05-07T10:09:42;16.17;;;4.00;;
179;SDS011;78;48.788;9.010;2023-05-07T10:12:09;18.33;;;3.93;;
179;SDS011;78;48.788;9.010;2023-05-07T10:14:35;17.70;;;4.10;;
179;SDS011;78;48.788;9.010;2023-05-07T10:17:01;15.80;;;3.80;;
179;SDS011;78;48.788;9.010;2023-05-07T10:19:27;15.93;;;4.00;;
179;SDS011;78;48.788;9.010;2023-05-07T10:21:55;15.97;;;3.60;;
179;SDS011;78;48.788;9.010;2023-05-07T10:24:25;15.70;;;3.70;;
179;SDS011;78;48.788;9.010;2023-05-07T10:26:51;16.50;;;3.80;;
179;SDS011;78;48.788;9.010;2023-05-07T10:32:05;17.20;;;3.80;;
179;SDS011;78;48.788;9.010;2023-05-07T10:34:36;17.57;;;3.80;;
179;SDS011;78;48.788;9.010;2023-05-07T10:37:03;18.40;;;3.53;;
179;SDS011;78;48.788;9.010;2023-05-07T10:39:29;14.93;;;3.40;;
179;SDS011;78;48.788;9.010;2023-05-07T10:41:55;15.90;;;3.90;;
179;SDS011;78;48.788;9.010;2023-05-07T10:44:25;16.33;;;3.60;;
179;SDS011;78;48.788;9.010;2023-05-07T10:49:30;16.20;;;4.00;;
179;SDS011;78;48.788;9.010;2023-05-07T10:52:10;15.90;;;3.90;;
179;SDS011;78;48.788;9.010;2023-05-07T10:54:37;15.63;;;4.03;;
179;SDS011;78;48.788;9.010;2023-05-07T10:59:48;15.57;;;3.83;;
179;SDS011;78;48.788;9.010;2023-05-07T11:02:14;23.60;;;4.20;;
179;SDS011;78;48.788;9.010;2023-05-07T11:04:40;16.00;;;3.97;;
179;SDS011;78;48.788;9.010;2023-05-07T11:17:35;17.87;;;4.80;;
179;SDS011;78;48.788;9.010;2023-05-07T11:20:17;18.37;;;4.50;;
179;SDS011;78;48.788;9.010;2023-05-07T11:22:43;21.53;;;4.87;;
179;SDS011;78;48.788;9.010;2023-05-07T11:25:09;18.73;;;4.80;;
179;SDS011;78;48.788;9.010;2023-05-07T11:27:35;18.43;;;5.27;;
179;SDS011;78;48.788;9.010;2023-05-07T11:30:02;19.70;;;5.10;;
179;SDS011;78;48.788;9.010;2023-05-07T11:32:28;21.43;;;5.20;;
179;SDS011;78;48.788;9.010;2023-05-07T11:34:55;19.83;;;5.27;;
179;SDS011;78;48.788;9.010;2023-05-07T11:37:22;22.53;;;7.10;;
179;SDS011;78;48.788;9.010;2023-05-07T11:39:48;28.47;;;8.27;;
179;SDS011;78;48.788;9.010;2023-05-07T11:42:29;21.20;;;7.00;;
179;SDS011;78;48.788;9.010;2023-05-07T11:44:56;22.13;;;7.33;;
179;SDS011;78;48.788;9.010;2023-05-07T11:47:22;20.67;;;6.83;;
179;SDS011;78;48.788;9.010;2023-05-07T11:49:49;28.93;;;7.60;;
179;SDS011;78;48.788;9.010;2023-05-07T11:52:16;28.77;;;8.50;;
179;SDS011;78;48.788;9.010;2023-05-07T11:54:52;23.70;;;9.33;;
179;SDS011;78;48.788;9.010;2023-05-07T11:57:19;30.10;;;9.90;;
179;SDS011;78;48.788;9.010;2023-05-07T11:59:45;28.63;;;9.20;;
179;SDS011;78;48.788;9.010;2023-05-07T12:02:15;25.63;;;7.57;;
179;SDS011;78;48.788;9.010;2023-05-07T12:04:41;23.07;;;6.20;;
179;SDS011;78;48.788;9.010;2023-05-07T12:07:16;21.97;;;6.67;;
179;SDS011;78;48.788;9.010;2023-05-07T12:09:43;25.40;;;7.33;;
179;SDS011;78;48.788;9.010;2023-05-07T12:12:09;32.70;;;7.30;;
179;SDS011;78;48.788;9.010;2023-05-07T12:14:39;29.13;;;9.07;;
179;SDS011;78;48.788;9.010;2023-05-07T12:17:05;28.37;;;7.90;;
179;SDS011;78;48.788;9.010;2023-05-07T12:19:31;31.20;;;7.73;;
179;SDS011;78;48.788;9.010;2023-05-07T12:21:59;32.20;;;7.70;;
179;SDS011;78;48.788;9.010;2023-05-07T12:24:25;28.70;;;7.87;;
179;SDS011;78;48.788;9.010;2023-05-07T12:26:51;34.33;;;8.77;;
179;SDS011;78;48.788;9.010;2023-05-07T12:29:20;33.37;;;7.87;;
179;SDS011;78;48.788;9.010;2023-05-07T12:31:46;34.43;;;8.30;;
179;SDS011;78;48.788;9.010;2023-05-07T12:34:12;41.23;;;8.20;;
179;SDS011;78;48.788;9.010;2023-05-07T12:36:39;29.33;;;6.90;;
179;SDS011;78;48.788;9.010;2023-05-07T12:39:06;25.20;;;6.80;;
179;SDS011;78;48.788;9.010;2023-05-07T12:41:35;31.47;;;7.80;;
179;SDS011;78;48.788;9.010;2023-05-07T12:44:04;39.50;;;9.10;;
179;SDS011;78;48.788;9.010;2023-05-07T12:46:30;33.23;;;7.33;;
179;SDS011;78;48.788;9.010;2023-05-07T12:48:56;24.40;;;6.13;;
179;SDS011;78;48.788;9.010;2023-05-07T12:51:22;29.03;;;6.47;;
179;SDS011;78;48.788;9.010;2023-05-07T12:53:48;29.13;;;5.97;;
179;SDS011;78;48.788;9.010;2023-05-07T12:56:15;24.60;;;6.20;;
179;SDS011;78;48.788;9.010;2023-05-07T12:58:41;21.57;;;6.37;;
179;SDS011;78;48.788;9.010;2023-05-07T13:01:07;30.33;;;6.97;;
179;SDS011;78;48.788;9.010;2023-05-07T13:03:35;30.87;;;7.30;;
179;SDS011;78;48.788;9.010;2023-05-07T13:06:04;27.93;;;7.20;;
179;SDS011;78;48.788;9.010;2023-05-07T13:08:31;29.30;;;6.80;;
179;SDS011;78;48.788;9.010;2023-05-07T13:10:58;23.00;;;6.20;;
179;SDS011;78;48.788;9.010;2023-05-07T13:13:27;26.63;;;5.83;;
179;SDS011;78;48.788;9.010;2023-05-07T13:15:53;27.43;;;5.70;;
179;SDS011;78;48.788;9.010;2023-05-07T13:18:19;21.93;;;5.70;;
179;SDS011;78;48.788;9.010;2023-05-07T13:20:45;20.87;;;5.40;;
179;SDS011;78;48.788;9.010;2023-05-07T13:23:11;23.10;;;5.70;;
179;SDS011;78;48.788;9.010;2023-05-07T13:25:37;20.07;;;4.80;;
179;SDS011;78;48.788;9.010;2023-05-07T13:28:03;20.23;;;4.97;;
179;SDS011;78;48.788;9.010;2023-05-07T13:30:29;30.23;;;5.77;;
179;SDS011;78;48.788;9.010;2023-05-07T13:32:56;19.20;;;5.00;;
179;SDS011;78;48.788;9.010;2023-05-07T13:35:22;18.80;;;4.83;;
179;SDS011;78;48.788;9.010;2023-05-07T13:37:48;24.73;;;6.97;;
179;SDS011;78;48.788;9.010;2023-05-07T13:40:15;20.03;;;5.10;;
179;SDS011;78;48.788;9.010;2023-05-07T13:42:41;18.67;;;4.80;;
179;SDS011;78;48.788;9.010;2023-05-07T13:45:07;19.30;;;5.63;;
179;SDS011;78;48.788;9.010;2023-05-07T13:47:34;18.17;;;5.50;;
179;SDS011;78;48.788;9.010;2023-05-07T13:50:00;24.50;;;6.00;;
179;SDS011;78;48.788;9.010;2023-05-07T13:52:26;20.87;;;5.53;;
179;SDS011;78;48.788;9.010;2023-05-07T13:54:52;19.73;;;5.33;;
179;SDS011;78;48.788;9.010;2023-05-07T13:57:18;18.73;;;5.40;;
179;SDS011;78;48.788;9.010;2023-05-07T13:59:45;19.60;;;5.80;;
179;SDS011;78;48.788;9.010;2023-05-07T14:02:10;18.60;;;5.50;;
179;SDS011;78;48.788;9.010;2023-05-07T14:04:37;18.70;;;5.93;;
179;SDS011;78;48.788;9.010;2023-05-07T14:07:03;21.60;;;5.97;;
179;SDS011;78;48.788;9.010;2023-05-07T14:09:30;20.47;;;6.50;;
179;SDS011;78;48.788;9.010;2023-05-07T14:11:56;20.30;;;6.40;;
179;SDS011;78;48.788;9.010;2023-05-07T14:14:21;21.40;;;6.30;;
179;SDS011;78;48.788;9.010;2023-05-07T14:16:47;19.87;;;6.57;;
179;SDS011;78;48.788;9.010;2023-05-07T14:19:13;21.33;;;6.20;;
179;SDS011;78;48.788;9.010;2023-05-07T14:21:39;20.83;;;6.40;;
179;SDS011;78;48.788;9.010;2023-05-07T14:24:06;20.70;;;6.60;;
179;SDS011;78;48.788;9.010;2023-05-07T14:26:33;20.33;;;6.20;;
179;SDS011;78;48.788;9.010;2023-05-07T14:28:59;20.40;;;6.57;;
179;SDS011;78;48.788;9.010;2023-05-07T14:31:25;18.77;;;5.20;;
179;SDS011;78;48.788;9.010;2023-05-07T14:33:51;19.50;;;5.90;;
179;SDS011;78;48.788;9.010;2023-05-07T14:36:18;23.57;;;6.13;;
179;SDS011;78;48.788;9.010;2023-05-07T14:38:46;19.70;;;6.30;;
179;SDS011;78;48.788;9.010;2023-05-07T14:41:12;23.90;;;6.90;;
179;SDS011;78;48.788;9.010;2023-05-07T14:43:38;19.30;;;6.30;;
179;SDS011;78;48.788;9.010;2023-05-07T14:46:04;21.27;;;5.83;;
179;SDS011;78;48.788;9.010;2023-05-07T14:48:30;22.80;;;6.50;;
179;SDS011;78;48.788;9.010;2023-05-07T14:50:57;20.20;;;5.93;;
179;SDS011;78;48.788;9.010;2023-05-07T14:53:24;20.53;;;5.77;;
179;SDS011;78;48.788;9.010;2023-05-07T14:55:50;20.67;;;5.40;;
179;SDS011;78;48.788;9.010;2023-05-07T14:58:16;18.60;;;5.70;;
179;SDS011;78;48.788;9.010;2023-05-07T15:00:42;18.17;;;5.00;;
179;SDS011;78;48.788;9.010;2023-05-07T15:03:09;18.10;;;5.20;;
179;SDS011;78;48.788;9.010;2023-05-07T15:05:35;22.13;;;4.93;;
179;SDS011;78;48.788;9.010;2023-05-07T15:08:02;18.80;;;5.20;;
179;SDS011;78;48.788;9.010;2023-05-07T15:10:28;18.67;;;5.07;;
179;SDS011;78;48.788;9.010;2023-05-07T15:12:54;18.57;;;5.40;;
179;SDS011;78;48.788;9.010;2023-05-07T15:15:20;18.33;;;4.93;;
179;SDS011;78;48.788;9.010;2023-05-07T15:17:46;22.47;;;5.20;;
179;SDS011;78;48.788;9.010;2023-05-07T15:20:12;17.47;;;4.80;;
179;SDS011;78;48.788;9.010;2023-05-07T15:22:39;17.50;;;4.90;;
179;SDS011;78;48.788;9.010;2023-05-07T15:25:06;18.80;;;4.83;;
179;SDS011;78;48.788;9.010;2023-05-07T15:27:33;17.73;;;5.13;;
179;SDS011;78;48.788;9.010;2023-05-07T15:29:59;18.50;;;5.37;;
179;SDS011;78;48.788;9.010;2023-05-07T15:32:25;20.07;;;5.70;;
179;SDS011;78;48.788;9.010;2023-05-07T15:34:51;18.73;;;4.90;;
179;SDS011;78;48.788;9.010;2023-05-07T15:37:19;17.70;;;4.80;;
179;SDS011;78;48.788;9.010;2023-05-07T15:39:45;18.40;;;4.97;;
179;SDS011;78;48.788;9.010;2023-05-07T15:42:11;20.40;;;4.87;;
179;SDS011;78;48.788;9.010;2023-05-07T15:44:37;21.20;;;5.87;;
179;SDS011;78;48.788;9.010;2023-05-07T15:47:03;19.93;;;5.97;;
179;SDS011;78;48.788;9.010;2023-05-07T15:49:29;19.50;;;5.70;;
179;SDS011;78;48.788;9.010;2023-05-07T15:51:55;20.00;;;5.80;;
179;SDS011;78;48.788;9.010;2023-05-07T15:54:21;18.43;;;5.53;;
179;SDS011;78;48.788;9.010;2023-05-07T15:56:48;19.40;;;5.90;;
179;SDS011;78;48.788;9.010;2023-05-07T15:59:15;23.70;;;5.70;;